Time;durP1;ratioP1;P1;durP2;ratioP2;P2;SDS_P1;SDS_P2;PMS_P1;PMS_P2;Temp;Humidity;BMP_temperature;BMP_pressure;BME280_temperature;BME280_humidity;BME280_pressure;Samples;Min_cycle;Max_cycle;Signal;HPM_P1;HPM_P2
2023/04/09 00:00:35;;;;;;;30.67;18.75;;;;;;;-143.48;96.78;118439.88;5056737;28;20025;-68
2023/04/09 00:03:00;;;;;;;31.05;18.10;;;;;;;-143.48;96.83;118439.88;5056758;28;20059;-69
2023/04/09 00:05:25;;;;;;;34.88;18.85;;;;;;;-143.48;96.36;118439.88;5056629;28;20040;-68
2023/04/09 00:07:51;;;;;;;33.15;18.25;;;;;;;-143.48;96.26;118439.88;5056818;28;20025;-68
2023/04/09 00:10:16;;;;;;;32.83;19.00;;;;;;;-143.48;96.10;118439.88;5056597;28;20417;-68
2023/04/09 00:12:41;;;;;;;34.88;19.65;;;;;;;-143.48;96.30;118439.88;5056514;28;20144;-68
2023/04/09 00:15:07;;;;;;;33.47;19.73;;;;;;;-143.48;96.07;118439.88;5056493;28;20025;-69
2023/04/09 00:17:33;;;;;;;29.08;18.73;;;;;;;-143.48;95.53;118439.88;5056565;28;20078;-69
2023/04/09 00:19:58;;;;;;;33.63;20.17;;;;;;;-143.48;96.34;118439.88;5056270;28;20119;-69
2023/04/09 00:22:23;;;;;;;32.65;19.42;;;;;;;-143.48;96.08;118439.88;5056316;28;20025;-69
2023/04/09 00:24:49;;;;;;;31.15;18.83;;;;;;;-143.48;95.78;118439.88;5056190;28;20021;-69
2023/04/09 00:27:14;;;;;;;31.65;19.25;;;;;;;-143.48;96.12;118439.88;5056240;28;20024;-69
2023/04/09 00:29:40;;;;;;;31.70;18.98;;;;;;;-143.48;95.91;118439.88;5056492;28;20110;-68
2023/04/09 00:32:05;;;;;;;35.08;19.95;;;;;;;-143.48;95.49;118439.88;5056320;28;20112;-68
2023/04/09 00:34:30;;;;;;;36.30;20.30;;;;;;;-143.48;96.65;118439.88;5056334;28;20028;-68
2023/04/09 00:36:56;;;;;;;32.10;19.67;;;;;;;-143.48;95.49;118439.88;5056219;28;20392;-69
2023/04/09 00:39:21;;;;;;;32.08;19.83;;;;;;;-143.48;95.61;118439.88;5056143;28;20071;-68
2023/04/09 00:41:46;;;;;;;33.33;19.63;;;;;;;-143.48;95.45;118439.88;5055965;28;20049;-69
2023/04/09 00:44:12;;;;;;;37.05;19.55;;;;;;;-143.48;95.40;118439.88;5055971;28;20456;-68
2023/04/09 00:46:37;;;;;;;33.97;19.95;;;;;;;-143.48;95.50;118439.88;5055882;28;20036;-68
2023/04/09 00:49:02;;;;;;;35.20;20.63;;;;;;;-143.48;95.46;118439.88;5055856;28;20029;-68
2023/04/09 00:51:28;;;;;;;37.30;20.15;;;;;;;-143.48;94.24;118439.88;5055649;28;20043;-69
2023/04/09 00:53:54;;;;;;;36.05;20.33;;;;;;;-143.48;94.87;118439.88;5055902;28;20031;-68
2023/04/09 00:56:21;;;;;;;32.88;19.10;;;;;;;-143.48;94.72;118439.88;5055425;28;20099;-68
2023/04/09 00:58:46;;;;;;;49.22;22.27;;;;;;;-143.48;94.68;118439.88;5054696;28;20079;-68
2023/04/09 01:01:12;;;;;;;36.80;20.27;;;;;;;-143.48;95.03;118439.88;5055668;28;20166;-69
2023/04/09 01:03:37;;;;;;;41.42;20.95;;;;;;;-143.48;95.19;118439.88;5055470;28;20029;-68
2023/04/09 01:06:29;;;;;;;38.78;20.80;;;;;;;-143.48;94.95;118439.88;5055336;28;20448;-68
2023/04/09 01:09:03;;;;;;;37.63;20.58;;;;;;;-143.48;94.95;118439.88;5045821;28;20037;-69
2023/04/09 01:11:39;;;;;;;39.00;20.50;;;;;;;-143.48;94.62;118439.88;5055330;28;20025;-68
2023/04/09 01:14:22;;;;;;;39.28;20.63;;;;;;;-143.48;94.43;118439.88;5037761;28;20025;-69
2023/04/09 01:16:54;;;;;;;44.15;21.63;;;;;;;-143.48;94.53;118439.88;5055453;28;20495;-70
2023/04/09 01:19:32;;;;;;;41.63;22.00;;;;;;;-143.48;94.98;118439.88;5055081;28;20500;-68
2023/04/09 01:21:59;;;;;;;37.92;20.55;;;;;;;-143.48;95.16;118439.88;5055288;28;20275;-69
2023/04/09 01:24:54;;;;;;;42.63;20.73;;;;;;;-143.48;94.79;118439.88;5055162;28;20385;-69
2023/04/09 01:27:20;;;;;;;39.53;21.73;;;;;;;-143.48;94.30;118439.88;5055088;28;20048;-68
2023/04/09 01:29:48;;;;;;;43.17;20.52;;;;;;;-143.48;94.23;118439.88;5054985;28;20045;-68
2023/04/09 01:32:16;;;;;;;41.95;21.02;;;;;;;-143.48;93.13;118439.88;5054922;28;20021;-69
2023/04/09 01:34:43;;;;;;;44.35;20.67;;;;;;;-143.48;92.13;118439.88;5054982;28;20021;-69
2023/04/09 01:37:10;;;;;;;46.38;20.55;;;;;;;-143.48;93.17;118439.88;5055089;28;20598;-69
2023/04/09 01:39:37;;;;;;;44.83;20.85;;;;;;;-143.48;93.05;118439.88;5055063;28;20020;-69
2023/04/09 01:42:04;;;;;;;43.65;20.85;;;;;;;-143.48;91.46;118439.88;5054780;28;20052;-69
2023/04/09 01:44:30;;;;;;;46.08;21.73;;;;;;;-143.48;92.64;118439.88;5054709;28;20503;-69
2023/04/09 01:46:57;;;;;;;47.38;21.95;;;;;;;-143.48;92.32;118439.88;5054910;28;20060;-69
2023/04/09 01:49:23;;;;;;;46.25;21.83;;;;;;;-143.48;91.25;118439.88;5036753;28;20029;-67
2023/04/09 01:51:49;;;;;;;48.28;22.08;;;;;;;-143.48;91.31;118439.88;5054657;28;20020;-69
2023/04/09 01:54:15;;;;;;;48.50;22.63;;;;;;;-143.48;91.57;118439.88;5054583;28;20063;-69
2023/04/09 01:56:41;;;;;;;48.35;22.30;;;;;;;-143.48;91.62;118439.88;5054474;28;20024;-69
2023/04/09 01:59:06;;;;;;;47.63;22.58;;;;;;;-143.48;92.35;118439.88;5054423;28;20463;-69
2023/04/09 02:01:37;;;;;;;52.70;22.13;;;;;;;-143.48;92.12;118439.88;5054348;28;20024;-68
2023/04/09 02:04:10;;;;;;;48.78;21.85;;;;;;;-143.48;90.67;118439.88;5054320;28;20025;-68
2023/04/09 02:07:01;;;;;;;45.97;21.98;;;;;;;-143.48;90.33;118439.88;5054487;28;20029;-68
2023/04/09 02:09:30;;;;;;;48.75;22.33;;;;;;;-143.48;90.20;118439.88;5039767;28;20041;-68
2023/04/09 02:11:58;;;;;;;45.22;21.20;;;;;;;-143.48;90.81;118439.88;5054243;28;20028;-68
2023/04/09 02:14:25;;;;;;;46.67;22.33;;;;;;;-143.48;91.15;118439.88;5054199;28;20032;-68
2023/04/09 02:16:51;;;;;;;46.05;22.08;;;;;;;-143.48;91.31;118439.88;5054199;28;20055;-69
2023/04/09 02:19:16;;;;;;;46.75;21.60;;;;;;;-143.48;90.97;118439.88;5054040;28;20120;-69
2023/04/09 02:21:43;;;;;;;49.05;23.15;;;;;;;-143.48;90.87;118439.88;5054233;28;20032;-69
2023/04/09 02:24:08;;;;;;;50.08;22.30;;;;;;;-143.48;90.50;118439.88;5053854;28;20075;-69
2023/04/09 02:26:33;;;;;;;44.42;21.55;;;;;;;-143.48;91.12;118439.88;5053923;28;20025;-69
2023/04/09 02:28:59;;;;;;;50.25;22.85;;;;;;;-143.48;90.61;118439.88;5054193;28;20024;-69
2023/04/09 02:31:24;;;;;;;44.80;21.63;;;;;;;-143.48;89.74;118439.88;5054100;28;20391;-68
2023/04/09 02:33:50;;;;;;;48.92;22.02;;;;;;;-143.48;90.40;118439.88;5053981;28;20021;-69
2023/04/09 02:36:15;;;;;;;51.78;22.65;;;;;;;-143.48;91.13;118439.88;5053963;28;20104;-69
2023/04/09 02:38:41;;;;;;;47.20;22.27;;;;;;;-143.48;90.38;118439.88;5035902;28;20025;-69
2023/04/09 02:41:07;;;;;;;47.95;21.30;;;;;;;-143.48;90.04;118439.88;5053756;28;20558;-69
2023/04/09 02:43:32;;;;;;;50.05;23.33;;;;;;;-143.48;90.39;118439.88;5054089;28;20458;-68
2023/04/09 02:45:57;;;;;;;45.85;22.13;;;;;;;-143.48;90.51;118439.88;5056434;28;20048;-68
2023/04/09 02:48:23;;;;;;;49.58;22.90;;;;;;;-143.48;90.92;118439.88;5058540;28;20021;-69
2023/04/09 02:50:48;;;;;;;48.25;21.98;;;;;;;-143.48;89.41;118439.88;5059559;28;20025;-69
2023/04/09 02:53:14;;;;;;;43.95;21.95;;;;;;;-143.48;89.01;118439.88;5060580;28;20025;-69
2023/04/09 02:55:39;;;;;;;46.72;21.92;;;;;;;-143.48;89.90;118439.88;5060831;28;20410;-69
2023/04/09 02:58:05;;;;;;;41.88;20.67;;;;;;;-143.48;89.91;118439.88;5059935;28;20025;-70
2023/04/09 03:00:30;;;;;;;42.75;20.95;;;;;;;-143.48;89.94;118439.88;5054679;28;20026;-68
2023/04/09 03:02:56;;;;;;;48.08;22.38;;;;;;;-143.48;89.99;118439.88;5054883;28;20056;-68
2023/04/09 03:05:22;;;;;;;46.95;22.95;;;;;;;-143.48;90.17;118439.88;5053877;28;20036;-69
2023/04/09 03:07:48;;;;;;;48.20;22.65;;;;;;;-143.48;91.30;118439.88;5053931;28;20025;-69
2023/04/09 03:10:13;;;;;;;43.17;22.05;;;;;;;-143.48;90.59;118439.88;5053738;28;20023;-68
2023/04/09 03:12:39;;;;;;;47.70;22.90;;;;;;;-143.48;90.01;118439.88;5053771;28;20447;-69
2023/04/09 03:15:05;;;;;;;48.22;23.40;;;;;;;-143.48;91.34;118439.88;5035485;28;20017;-68
2023/04/09 03:17:30;;;;;;;45.05;22.65;;;;;;;-143.48;90.95;118439.88;5053208;28;20028;-68
2023/04/09 03:19:56;;;;;;;48.85;22.65;;;;;;;-143.48;90.92;118439.88;5053227;28;20056;-68
2023/04/09 03:22:21;;;;;;;46.67;22.52;;;;;;;-143.48;90.99;118439.88;5034764;28;20584;-68
2023/04/09 03:24:46;;;;;;;47.40;22.42;;;;;;;-143.48;92.06;118439.88;5053123;28;20032;-68
2023/04/09 03:27:12;;;;;;;52.10;22.98;;;;;;;-143.48;91.75;118439.88;5053157;28;20048;-69
2023/04/09 03:29:37;;;;;;;48.53;22.83;;;;;;;-143.48;91.87;118439.88;5052989;28;20426;-69
2023/04/09 03:32:02;;;;;;;49.67;23.05;;;;;;;-143.48;92.57;118439.88;5053189;28;20468;-69
2023/04/09 03:34:28;;;;;;;49.03;22.83;;;;;;;-143.48;92.59;118439.88;5053060;28;20105;-69
2023/04/09 03:36:53;;;;;;;46.28;22.48;;;;;;;-143.48;92.65;118439.88;5053050;28;20119;-69
2023/04/09 03:39:18;;;;;;;48.55;23.35;;;;;;;-143.48;93.23;118439.88;5053127;28;20053;-68
2023/04/09 03:41:44;;;;;;;45.38;22.02;;;;;;;-143.48;92.37;118439.88;5035173;28;20045;-69
2023/04/09 03:44:09;;;;;;;45.50;22.13;;;;;;;-143.48;92.36;118439.88;5035075;28;20194;-69
2023/04/09 03:46:35;;;;;;;51.10;22.50;;;;;;;-143.48;92.60;118439.88;5052937;28;20025;-69
2023/04/09 03:49:00;;;;;;;44.92;21.90;;;;;;;-143.48;91.99;118439.88;5053084;28;20111;-69
2023/04/09 03:51:26;;;;;;;45.40;22.33;;;;;;;-143.48;91.80;118439.88;5053046;28;20054;-69
2023/04/09 03:53:51;;;;;;;49.17;23.00;;;;;;;-143.48;92.34;118439.88;5052900;28;20025;-69
2023/04/09 03:56:16;;;;;;;45.30;22.70;;;;;;;-143.48;91.80;118439.88;5052891;28;20391;-68
2023/04/09 03:58:42;;;;;;;48.30;23.02;;;;;;;-143.48;92.05;118439.88;5052882;28;20036;-68
2023/04/09 04:01:07;;;;;;;45.33;21.92;;;;;;;-143.48;92.06;118439.88;5052818;28;20025;-68
2023/04/09 04:03:32;;;;;;;48.92;23.02;;;;;;;-143.48;91.89;118439.88;5052820;28;20108;-68
2023/04/09 04:06:02;;;;;;;45.45;22.95;;;;;;;-143.48;92.37;118439.88;5052656;28;20388;-68
2023/04/09 04:08:27;;;;;;;47.67;22.38;;;;;;;-143.48;92.98;118439.88;5034866;28;20028;-69
2023/04/09 04:10:53;;;;;;;53.65;23.20;;;;;;;-143.48;92.00;118439.88;5051433;28;20024;-68
2023/04/09 04:13:18;;;;;;;49.13;23.30;;;;;;;-143.48;91.58;118439.88;5052536;28;20099;-69
2023/04/09 04:15:43;;;;;;;47.92;22.27;;;;;;;-143.48;92.71;118439.88;5052624;28;20013;-68
2023/04/09 04:18:09;;;;;;;48.72;22.10;;;;;;;-143.48;92.79;118439.88;5052662;28;20108;-68
2023/04/09 04:20:35;;;;;;;48.63;23.42;;;;;;;-143.48;93.30;118439.88;5052704;28;20048;-68
2023/04/09 04:23:01;;;;;;;48.22;22.63;;;;;;;-143.48;92.13;118439.88;5052636;28;20032;-68
2023/04/09 04:25:27;;;;;;;47.60;22.75;;;;;;;-143.48;92.17;118439.88;5034639;28;20060;-68
2023/04/09 04:27:53;;;;;;;45.17;21.80;;;;;;;-143.48;92.38;118439.88;5052715;28;20036;-68
2023/04/09 04:30:19;;;;;;;42.17;20.60;;;;;;;-143.48;91.80;118439.88;5052769;28;20059;-68
2023/04/09 04:32:44;;;;;;;44.90;21.45;;;;;;;-143.48;92.11;118439.88;5052908;28;20043;-68
2023/04/09 04:35:10;;;;;;;44.67;22.00;;;;;;;-143.48;92.08;118439.88;5056052;28;20163;-69
2023/04/09 04:37:35;;;;;;;44.65;21.48;;;;;;;-143.48;92.05;118439.88;5056229;28;20044;-68
2023/04/09 04:40:02;;;;;;;44.55;21.42;;;;;;;-143.48;91.71;118439.88;5038244;28;20025;-68
2023/04/09 04:42:27;;;;;;;49.20;21.60;;;;;;;-143.48;92.60;118439.88;5038085;28;20045;-68
2023/04/09 04:44:53;;;;;;;46.45;21.60;;;;;;;-143.48;91.86;118439.88;5056228;28;20049;-69
2023/04/09 04:47:18;;;;;;;43.75;20.88;;;;;;;-143.48;91.27;118439.88;5056004;28;20485;-68
2023/04/09 04:49:43;;;;;;;41.78;20.85;;;;;;;-143.48;90.89;118439.88;5056225;28;20032;-68
2023/04/09 04:52:09;;;;;;;42.78;21.17;;;;;;;-143.48;91.39;118439.88;5055753;28;20020;-68
2023/04/09 04:54:35;;;;;;;42.22;21.08;;;;;;;-143.48;90.95;118439.88;5055901;28;20024;-68
2023/04/09 04:57:00;;;;;;;42.83;20.63;;;;;;;-143.48;91.17;118439.88;5056136;28;20029;-68
2023/04/09 04:59:25;;;;;;;43.88;21.35;;;;;;;-143.48;90.58;118439.88;5056052;28;20020;-68
2023/04/09 05:01:51;;;;;;;42.25;21.52;;;;;;;-143.48;90.79;118439.88;5055915;28;20473;-68
2023/04/09 05:04:16;;;;;;;39.47;20.45;;;;;;;-143.48;90.60;118439.88;5055711;28;20154;-69
2023/04/09 05:06:41;;;;;;;39.72;20.33;;;;;;;-143.48;89.91;118439.88;5056279;28;20056;-69
2023/04/09 05:09:07;;;;;;;38.67;20.42;;;;;;;-143.48;90.52;118439.88;5038343;28;20082;-69
2023/04/09 05:11:32;;;;;;;39.75;20.20;;;;;;;-143.48;90.14;118439.88;5056319;28;20021;-69
2023/04/09 05:13:57;;;;;;;38.28;19.90;;;;;;;-143.48;90.02;118439.88;5056011;28;20033;-69
2023/04/09 05:16:22;;;;;;;38.30;19.90;;;;;;;-143.48;89.81;118439.88;5058903;28;20384;-69
2023/04/09 05:18:48;;;;;;;40.15;20.42;;;;;;;-143.48;90.56;118439.88;5064059;28;20031;-69
2023/04/09 05:21:13;;;;;;;41.53;21.10;;;;;;;-143.48;90.89;118439.88;5065223;28;20032;-69
2023/04/09 05:23:38;;;;;;;38.85;20.05;;;;;;;-143.48;90.39;118439.88;5065692;28;20392;-69
2023/04/09 05:26:04;;;;;;;38.25;19.50;;;;;;;-143.48;89.74;118439.88;5065631;28;20025;-69
2023/04/09 05:28:29;;;;;;;40.33;20.60;;;;;;;-143.48;89.53;118439.88;5066566;28;20089;-69
2023/04/09 05:30:55;;;;;;;39.50;20.95;;;;;;;-143.48;89.60;118439.88;5065843;28;20031;-70
2023/04/09 05:33:20;;;;;;;38.88;19.83;;;;;;;-143.48;89.39;118439.88;5066687;28;20029;-70
2023/04/09 05:35:46;;;;;;;37.88;20.02;;;;;;;-143.48;89.38;118439.88;5065656;28;20025;-69
2023/04/09 05:38:12;;;;;;;41.30;19.95;;;;;;;-143.48;88.95;118439.88;5064881;28;20435;-68
2023/04/09 05:40:38;;;;;;;40.03;21.10;;;;;;;-143.48;89.02;118439.88;5045714;28;20400;-69
2023/04/09 05:43:03;;;;;;;35.22;19.25;;;;;;;-143.48;88.86;118439.88;5069989;28;20096;-69
2023/04/09 05:45:28;;;;;;;41.50;20.55;;;;;;;-143.48;88.38;118439.88;5053322;28;20032;-69
2023/04/09 05:47:53;;;;;;;41.63;19.90;;;;;;;-143.48;88.71;118439.88;5071599;28;20017;-70
2023/04/09 05:50:19;;;;;;;39.00;19.90;;;;;;;-143.48;88.26;118439.88;5071246;28;20029;-70
2023/04/09 05:52:44;;;;;;;41.45;20.75;;;;;;;-143.48;88.34;118439.88;5073327;28;20032;-70
2023/04/09 05:55:10;;;;;;;38.95;21.30;;;;;;;-143.48;88.22;118439.88;5071252;28;20029;-71
2023/04/09 05:57:35;;;;;;;37.05;20.13;;;;;;;-143.48;88.39;118439.88;5069951;28;20041;-69
2023/04/09 06:00:01;;;;;;;38.13;20.50;;;;;;;-143.48;89.23;118439.88;5071690;28;20057;-70
2023/04/09 06:02:26;;;;;;;39.47;19.52;;;;;;;-143.48;88.08;118439.88;5062493;28;20031;-69
2023/04/09 06:04:51;;;;;;;39.17;20.70;;;;;;;-143.48;88.27;118439.88;5057159;28;20542;-68
2023/04/09 06:07:16;;;;;;;42.65;20.77;;;;;;;-143.48;87.88;118439.88;5057089;28;20036;-68
2023/04/09 06:09:45;;;;;;;35.20;19.40;;;;;;;-143.48;87.59;118439.88;5056976;28;20044;-69
2023/04/09 06:12:11;;;;;;;43.83;20.67;;;;;;;-143.48;87.67;118439.88;5055896;28;20025;-68
2023/04/09 06:14:37;;;;;;;35.40;19.38;;;;;;;-143.48;86.74;118439.88;5056253;28;20235;-67
2023/04/09 06:17:02;;;;;;;36.63;19.42;;;;;;;-143.48;86.09;118439.88;5055863;28;20108;-68
2023/04/09 06:19:27;;;;;;;38.80;19.95;;;;;;;-143.48;85.95;118439.88;5055015;28;20465;-68
2023/04/09 06:21:53;;;;;;;35.60;19.35;;;;;;;-143.48;85.96;118439.88;5054779;28;20025;-69
2023/04/09 06:24:21;;;;;;;41.22;19.95;;;;;;;-143.48;86.69;118439.88;5054878;28;20025;-69
2023/04/09 06:26:46;;;;;;;40.15;19.63;;;;;;;-143.48;86.49;118439.88;5036884;28;20025;-69
2023/04/09 06:29:12;;;;;;;34.72;19.98;;;;;;;-143.48;86.22;118439.88;5054644;28;20036;-68
2023/04/09 06:31:37;;;;;;;37.67;19.38;;;;;;;-143.48;86.39;118439.88;5068016;28;20025;-69
2023/04/09 06:34:02;;;;;;;39.75;19.55;;;;;;;-143.48;86.11;118439.88;5068043;28;20033;-69
2023/04/09 06:36:29;;;;;;;37.13;19.02;;;;;;;-143.48;85.91;118439.88;5039303;28;20103;-69
2023/04/09 06:38:55;;;;;;;36.05;18.85;;;;;;;-143.48;86.54;118439.88;5056391;28;20029;-69
2023/04/09 06:41:21;;;;;;;40.72;19.77;;;;;;;-143.48;86.06;118439.88;5056089;28;20044;-68
2023/04/09 06:43:47;;;;;;;35.75;19.67;;;;;;;-143.48;86.43;118439.88;5053940;28;20029;-69
2023/04/09 06:46:16;;;;;;;37.40;20.42;;;;;;;-143.48;86.31;118439.88;5035957;28;20031;-68
2023/04/09 06:48:43;;;;;;;36.08;20.00;;;;;;;-143.48;85.31;118439.88;5052486;28;20082;-69
2023/04/09 06:51:09;;;;;;;40.20;21.52;;;;;;;-143.48;85.19;118439.88;5053844;28;20032;-69
2023/04/09 06:53:34;;;;;;;40.63;21.02;;;;;;;-143.48;85.20;118439.88;5036051;28;20025;-69
2023/04/09 06:56:00;;;;;;;43.58;22.88;;;;;;;-143.48;85.78;118439.88;5053282;28;20021;-69
2023/04/09 06:58:25;;;;;;;43.80;21.98;;;;;;;-143.48;85.51;118439.88;5053140;28;20029;-69
2023/04/09 07:00:53;;;;;;;45.35;22.40;;;;;;;-143.48;85.34;118439.88;5035855;28;20095;-67
2023/04/09 07:03:23;;;;;;;45.38;21.67;;;;;;;-143.48;84.96;118439.88;5053449;28;20032;-68
2023/04/09 07:05:49;;;;;;;43.67;23.30;;;;;;;-143.48;84.82;118439.88;5053520;28;20019;-69
2023/04/09 07:08:14;;;;;;;45.45;22.80;;;;;;;-143.48;85.65;118439.88;5053950;28;20021;-68
2023/04/09 07:10:40;;;;;;;42.50;21.88;;;;;;;-143.48;84.60;118439.88;5053378;28;20025;-69
2023/04/09 07:13:06;;;;;;;42.88;21.85;;;;;;;-143.48;84.48;118439.88;5053816;28;20540;-68
2023/04/09 07:15:31;;;;;;;43.92;22.38;;;;;;;-143.48;84.32;118439.88;5035734;28;20483;-68
2023/04/09 07:17:57;;;;;;;43.22;23.15;;;;;;;-143.48;85.68;118439.88;5053539;28;20025;-68
2023/04/09 07:20:22;;;;;;;46.03;22.48;;;;;;;-143.48;85.64;118439.88;5053439;28;20040;-68
2023/04/09 07:22:48;;;;;;;46.75;22.95;;;;;;;-143.48;85.73;118439.88;5053419;28;20055;-68
2023/04/09 07:25:14;;;;;;;45.40;22.95;;;;;;;-143.48;85.24;118439.88;5053399;28;20524;-69
2023/04/09 07:27:39;;;;;;;47.58;23.77;;;;;;;-143.48;84.60;118439.88;5053481;28;20028;-69
2023/04/09 07:30:05;;;;;;;49.55;25.15;;;;;;;-143.48;83.95;118439.88;5035571;28;20457;-69
2023/04/09 07:32:31;;;;;;;45.38;22.60;;;;;;;-143.48;84.93;118439.88;5053104;28;20056;-69
2023/04/09 07:34:58;;;;;;;44.85;23.23;;;;;;;-143.48;84.29;118439.88;5053353;28;20017;-68
2023/04/09 07:37:24;;;;;;;47.17;23.95;;;;;;;-143.48;83.68;118439.88;5035364;28;20032;-68
2023/04/09 07:39:50;;;;;;;50.42;24.98;;;;;;;-143.48;83.09;118439.88;5035209;28;20464;-68
2023/04/09 07:42:15;;;;;;;49.63;24.55;;;;;;;-143.48;83.47;118439.88;5052969;28;20091;-69
2023/04/09 07:44:40;;;;;;;43.05;23.30;;;;;;;-143.48;82.82;118439.88;5053047;28;20060;-69
2023/04/09 07:47:07;;;;;;;46.90;23.52;;;;;;;-143.48;83.27;118439.88;5053230;28;20055;-69
2023/04/09 07:49:34;;;;;;;49.45;24.65;;;;;;;-143.48;82.49;118439.88;5035152;28;20025;-69
2023/04/09 07:52:00;;;;;;;49.38;24.95;;;;;;;-143.48;82.84;118439.88;5054759;28;20040;-69
2023/04/09 07:54:25;;;;;;;48.88;25.00;;;;;;;-143.48;81.91;118439.88;5071474;28;20017;-69
2023/04/09 07:56:51;;;;;;;49.50;25.02;;;;;;;-143.48;82.35;118439.88;5053739;28;20025;-67
2023/04/09 07:59:16;;;;;;;49.70;24.55;;;;;;;-143.48;81.60;118439.88;5061070;28;20021;-69
2023/04/09 08:01:42;;;;;;;46.90;24.15;;;;;;;-143.48;80.21;118439.88;5052898;28;20021;-68
2023/04/09 08:04:08;;;;;;;45.58;23.75;;;;;;;-143.48;80.19;118439.88;5053079;28;20037;-68
2023/04/09 08:06:33;;;;;;;49.13;23.85;;;;;;;-143.48;78.85;118439.88;5052938;28;20384;-68
2023/04/09 08:08:59;;;;;;;45.70;24.00;;;;;;;-143.48;79.79;118439.88;5037537;28;20025;-68
2023/04/09 08:11:25;;;;;;;43.80;23.13;;;;;;;-143.48;78.35;118439.88;5069431;28;20027;-69
2023/04/09 08:13:54;;;;;;;44.30;23.10;;;;;;;-143.48;78.39;118439.88;5056677;28;20104;-69
2023/04/09 08:16:20;;;;;;;43.50;22.67;;;;;;;-143.48;77.93;118439.88;5056958;28;20028;-69
2023/04/09 08:18:46;;;;;;;44.75;23.30;;;;;;;-143.48;77.28;118439.88;5056396;28;20361;-69
2023/04/09 08:21:11;;;;;;;43.25;22.73;;;;;;;-143.48;78.12;118439.88;5056818;28;20055;-69
2023/04/09 08:23:36;;;;;;;44.92;21.65;;;;;;;-143.48;77.97;118439.88;5056475;28;20063;-69
2023/04/09 08:26:02;;;;;;;43.63;21.80;;;;;;;-143.48;78.44;118439.88;5056964;28;20017;-69
2023/04/09 08:28:28;;;;;;;38.15;20.77;;;;;;;-143.48;77.17;118439.88;5056703;28;20028;-69
2023/04/09 08:30:53;;;;;;;42.88;21.23;;;;;;;-143.48;77.94;118439.88;5056334;28;20459;-69
2023/04/09 08:33:18;;;;;;;36.92;20.75;;;;;;;-143.48;77.66;118439.88;5056381;28;20028;-69
2023/04/09 08:35:44;;;;;;;39.33;20.15;;;;;;;-143.48;75.54;118439.88;5056374;28;20104;-69
2023/04/09 08:38:10;;;;;;;41.53;21.77;;;;;;;-143.48;73.98;118439.88;5059394;28;20029;-69
2023/04/09 08:40:35;;;;;;;36.88;21.25;;;;;;;-143.48;74.45;118439.88;5055946;28;20423;-70
2023/04/09 08:43:04;;;;;;;36.97;20.30;;;;;;;-143.48;73.78;118439.88;5038355;28;20032;-68
2023/04/09 08:45:29;;;;;;;35.60;19.58;;;;;;;-143.48;73.61;118439.88;5055971;28;20040;-68
2023/04/09 08:47:58;;;;;;;38.13;21.20;;;;;;;-143.48;73.48;118439.88;5055835;28;20021;-68
2023/04/09 08:50:24;;;;;;;36.10;20.33;;;;;;;-143.48;72.16;118439.88;5037907;28;20032;-69
2023/04/09 08:52:49;;;;;;;35.03;20.17;;;;;;;-143.48;70.44;118439.88;5055978;28;20025;-69
2023/04/09 08:55:15;;;;;;;33.90;20.58;;;;;;;-143.48;67.21;118439.88;5055810;28;20017;-69
2023/04/09 08:57:41;;;;;;;37.13;20.95;;;;;;;-143.48;67.37;118439.88;5055922;28;20447;-69
2023/04/09 09:00:07;;;;;;;33.85;20.63;;;;;;;-143.48;66.41;118439.88;5037873;28;20032;-69
2023/04/09 09:02:33;;;;;;;35.40;20.45;;;;;;;-143.48;64.80;118439.88;5055783;28;20029;-69
2023/04/09 09:04:59;;;;;;;35.30;20.42;;;;;;;-143.48;65.58;118439.88;5055359;28;20391;-69
2023/04/09 09:07:29;;;;;;;32.65;20.05;;;;;;;-143.48;65.93;118439.88;5055775;28;20052;-69
2023/04/09 09:09:57;;;;;;;34.35;19.55;;;;;;;-143.48;64.89;118439.88;5037726;28;20024;-69
2023/04/09 09:12:40;;;;;;;33.15;19.75;;;;;;;-143.48;64.80;118439.88;5058134;28;20079;-69
2023/04/09 09:15:27;;;;;;;31.42;19.63;;;;;;;-143.48;64.86;118439.88;5055646;28;20112;-69
2023/04/09 09:17:57;;;;;;;29.08;18.85;;;;;;;-143.48;61.76;118439.88;5037669;28;20025;-69
2023/04/09 09:20:24;;;;;;;30.63;19.10;;;;;;;-143.48;61.93;118439.88;5036594;28;20062;-69
2023/04/09 09:22:51;;;;;;;29.17;18.55;;;;;;;-143.48;59.22;118439.88;5041212;28;20021;-66
2023/04/09 09:25:17;;;;;;;29.65;18.48;;;;;;;-143.48;59.34;118439.88;5055245;28;20483;-68
2023/04/09 09:27:42;;;;;;;30.33;18.67;;;;;;;-143.48;58.81;118439.88;5055616;28;20056;-68
2023/04/09 09:30:19;;;;;;;29.33;18.88;;;;;;;-143.48;57.00;118439.88;5055276;28;20048;-68
2023/04/09 09:32:44;;;;;;;29.52;19.27;;;;;;;-143.48;58.84;118439.88;5055064;28;20025;-68
2023/04/09 09:35:10;;;;;;;32.65;19.45;;;;;;;-143.48;61.11;118439.88;5055070;28;20353;-69
2023/04/09 09:37:35;;;;;;;31.38;19.13;;;;;;;-143.48;60.30;118439.88;5037071;28;20445;-67
2023/04/09 09:40:00;;;;;;;31.75;20.00;;;;;;;-143.48;59.28;118439.88;5037042;28;20040;-68
2023/04/09 09:42:26;;;;;;;31.77;20.38;;;;;;;-143.48;56.27;118439.88;5037068;28;20041;-68
2023/04/09 09:44:55;;;;;;;32.45;19.88;;;;;;;-143.48;57.01;118439.88;5053409;28;20049;-69
2023/04/09 09:47:21;;;;;;;28.15;19.35;;;;;;;-143.48;53.50;118439.88;5053302;28;20032;-69
2023/04/09 09:49:49;;;;;;;29.00;19.08;;;;;;;-143.48;53.00;118439.88;5034812;28;20025;-68
2023/04/09 09:52:15;;;;;;;27.85;19.55;;;;;;;-143.48;53.49;118439.88;5059251;28;20435;-69
2023/04/09 09:54:41;;;;;;;33.58;20.65;;;;;;;-143.48;52.66;118439.88;5055434;28;20017;-68
2023/04/09 09:57:09;;;;;;;30.02;19.85;;;;;;;-143.48;52.45;118439.88;5055469;28;20049;-68
2023/04/09 09:59:42;;;;;;;31.05;20.10;;;;;;;-143.48;48.67;118439.88;5055081;28;20048;-69
2023/04/09 10:02:18;;;;;;;30.85;20.35;;;;;;;-143.48;49.92;118439.88;5056980;28;20037;-69
2023/04/09 10:04:44;;;;;;;30.73;19.95;;;;;;;-143.48;52.12;118439.88;5055781;28;20500;-68
2023/04/09 10:07:10;;;;;;;28.52;20.33;;;;;;;-143.48;49.77;118439.88;5039353;28;20056;-68
2023/04/09 10:09:39;;;;;;;27.25;20.33;;;;;;;-143.48;48.88;118439.88;5058287;28;20024;-69
2023/04/09 10:12:08;;;;;;;30.45;20.67;;;;;;;-143.48;49.12;118439.88;5057287;28;20048;-68
2023/04/09 10:14:34;;;;;;;28.17;20.38;;;;;;;-143.48;50.11;118439.88;5055385;28;20083;-68
2023/04/09 10:17:00;;;;;;;32.58;20.00;;;;;;;-143.48;51.01;118439.88;5055626;28;20055;-68
2023/04/09 10:19:26;;;;;;;29.15;20.27;;;;;;;-143.48;51.42;118439.88;5060561;28;20024;-69
2023/04/09 10:22:03;;;;;;;31.83;21.35;;;;;;;-143.48;52.22;118439.88;5054651;28;20029;-69
2023/04/09 10:24:29;;;;;;;33.60;21.35;;;;;;;-143.48;53.21;118439.88;5054876;28;20032;-67
2023/04/09 10:27:07;;;;;;;31.30;21.27;;;;;;;-143.48;55.05;118439.88;5054587;28;20029;-68
2023/04/09 10:29:32;;;;;;;33.45;21.30;;;;;;;-143.48;56.02;118439.88;5054056;28;20021;-68
2023/04/09 10:32:07;;;;;;;36.30;22.48;;;;;;;-143.48;54.36;118439.88;5053888;28;20036;-68
2023/04/09 10:34:40;;;;;;;32.08;21.90;;;;;;;-143.48;53.81;118439.88;5058087;28;20060;-69
2023/04/09 10:37:14;;;;;;;34.35;22.13;;;;;;;-143.48;53.58;118439.88;5060469;28;20052;-69
2023/04/09 10:39:43;;;;;;;32.20;20.83;;;;;;;-143.48;53.56;118439.88;5060448;28;20028;-70
2023/04/09 10:42:33;;;;;;;33.80;20.98;;;;;;;-143.48;55.01;118439.88;5063039;28;20080;-68
2023/04/09 10:45:10;;;;;;;32.92;20.90;;;;;;;-143.48;54.47;118439.88;5054512;28;20025;-68
2023/04/09 10:47:38;;;;;;;33.85;21.38;;;;;;;-143.48;55.30;118439.88;5035907;28;20021;-68
2023/04/09 10:50:20;;;;;;;33.95;21.90;;;;;;;-143.48;55.68;118439.88;5053735;28;20025;-68
2023/04/09 10:52:51;;;;;;;34.20;22.33;;;;;;;-143.48;55.90;118439.88;5053683;28;20516;-68